createdAt,value
2023-01-28T00:02:00.103Z,52.07
2023-01-28T00:04:28.965Z,54.13
2023-01-28T00:06:58.921Z,50.87
2023-01-28T00:09:27.757Z,50.80
2023-01-28T00:11:56.886Z,53.30
2023-01-28T00:14:26.497Z,51.10
2023-01-28T00:16:55.353Z,48.33
2023-01-28T00:19:26.445Z,49.37
2023-01-28T00:21:55.938Z,51.00
2023-01-28T00:24:26.214Z,49.17
2023-01-28T00:26:55.215Z,56.93
2023-01-28T00:29:24.320Z,55.13
2023-01-28T00:31:53.071Z,56.70
2023-01-28T00:34:21.752Z,59.80
2023-01-28T00:36:58.365Z,54.63
2023-01-28T00:39:29.083Z,57.43
2023-01-28T00:42:00.859Z,51.67
2023-01-28T00:44:29.550Z,58.40
2023-01-28T00:46:58.854Z,55.93
2023-01-28T00:49:30.770Z,53.77
2023-01-28T00:51:59.665Z,52.30
2023-01-28T00:54:30.230Z,55.67
2023-01-28T00:56:59.214Z,48.57
2023-01-28T00:59:28.181Z,50.23
2023-01-28T01:02:12.717Z,47.33
2023-01-28T01:04:55.102Z,48.73
2023-01-28T01:07:35.162Z,49.20
2023-01-28T01:10:05.933Z,47.73
2023-01-28T01:12:34.729Z,44.83
2023-01-28T01:15:04.146Z,46.70
2023-01-28T01:17:33.466Z,41.17
2023-01-28T01:20:05.551Z,39.97
2023-01-28T01:22:35.977Z,43.83
2023-01-28T01:25:07.226Z,43.03
2023-01-28T01:27:35.811Z,41.43
2023-01-28T01:30:04.773Z,43.07
2023-01-28T01:32:36.499Z,43.57
2023-01-28T01:35:09.103Z,43.70
2023-01-28T01:37:38.264Z,42.40
2023-01-28T01:40:12.584Z,41.13
2023-01-28T01:42:42.224Z,40.17
2023-01-28T01:45:16.181Z,40.63
2023-01-28T01:47:49.964Z,42.93
2023-01-28T01:50:25.755Z,42.73
2023-01-28T01:53:00.640Z,44.87
2023-01-28T01:55:37.803Z,42.37
2023-01-28T01:58:12.038Z,42.13
2023-01-28T02:00:42.031Z,48.83
2023-01-28T02:03:12.703Z,47.73
2023-01-28T02:05:42.025Z,46.57
2023-01-28T02:08:23.111Z,45.77
2023-01-28T02:10:56.798Z,48.30
2023-01-28T02:13:30.038Z,52.60
2023-01-28T02:16:00.767Z,46.13
2023-01-28T02:18:29.592Z,43.50
2023-01-28T02:21:24.583Z,43.60
2023-01-28T02:24:12.555Z,41.67
2023-01-28T02:27:06.825Z,40.57
2023-01-28T02:29:42.854Z,46.53
2023-01-28T02:32:16.947Z,45.23
2023-01-28T02:34:51.809Z,43.33
2023-01-28T02:37:24.237Z,54.50
2023-01-28T02:39:58.035Z,46.47
2023-01-28T02:42:30.320Z,40.97
2023-01-28T02:45:00.356Z,41.47
2023-01-28T02:47:46.687Z,41.33
2023-01-28T02:50:19.726Z,41.63
2023-01-28T02:53:18.657Z,39.70
2023-01-28T02:55:53.376Z,39.63
2023-01-28T02:58:30.462Z,38.23
2023-01-28T03:01:11.244Z,34.07
2023-01-28T03:03:47.462Z,35.53
2023-01-28T03:06:23.414Z,37.63
2023-01-28T03:09:13.440Z,35.63
2023-01-28T03:12:02.446Z,37.07
2023-01-28T03:14:51.823Z,35.63
2023-01-28T03:17:44.255Z,34.00
2023-01-28T03:20:31.267Z,37.60
2023-01-28T03:23:24.842Z,38.03
2023-01-28T03:26:17.327Z,34.37
2023-01-28T03:29:07.535Z,38.17
2023-01-28T03:31:55.910Z,34.57
2023-01-28T03:34:44.023Z,32.70
2023-01-28T03:37:14.948Z,30.17
2023-01-28T03:39:43.721Z,33.57
2023-01-28T03:42:15.074Z,37.20
2023-01-28T03:44:52.401Z,37.83
2023-01-28T03:47:22.915Z,36.03
2023-01-28T03:49:54.782Z,37.93
2023-01-28T03:52:25.551Z,39.23
2023-01-28T03:54:54.204Z,36.83
2023-01-28T03:57:24.475Z,34.90
2023-01-28T03:59:53.314Z,38.50
2023-01-28T04:02:23.276Z,36.30
2023-01-28T04:04:53.556Z,41.97
2023-01-28T04:07:22.346Z,36.07
2023-01-28T04:09:50.941Z,35.17
2023-01-28T04:12:20.088Z,39.87
2023-01-28T04:14:48.795Z,62.80
2023-01-28T04:17:17.491Z,48.50
2023-01-28T04:19:45.957Z,45.37
2023-01-28T04:22:16.128Z,44.43
2023-01-28T04:24:44.889Z,40.23
2023-01-28T04:27:13.510Z,40.00
2023-01-28T04:29:42.172Z,40.30
2023-01-28T04:32:11.776Z,38.03
2023-01-28T04:34:40.486Z,37.50
2023-01-28T04:37:09.056Z,37.77
2023-01-28T04:39:39.431Z,39.83
2023-01-28T04:42:08.306Z,38.07
2023-01-28T04:44:36.883Z,40.77
2023-01-28T04:47:05.595Z,56.07
2023-01-28T04:49:34.635Z,71.70
2023-01-28T04:52:03.194Z,49.63
2023-01-28T04:54:32.403Z,65.53
2023-01-28T04:57:03.095Z,60.20
2023-01-28T04:59:32.620Z,45.17
2023-01-28T05:02:03.445Z,44.27
2023-01-28T05:04:33.354Z,37.53
2023-01-28T05:07:02.620Z,46.53
2023-01-28T05:09:31.192Z,43.07
2023-01-28T05:12:02.147Z,46.13
2023-01-28T05:14:31.118Z,44.30
2023-01-28T05:17:00.373Z,44.57
2023-01-28T05:19:29.477Z,40.80
2023-01-28T05:21:58.905Z,42.07
2023-01-28T05:24:28.872Z,22.23
2023-01-28T05:26:57.641Z,53.87
2023-01-28T05:29:27.711Z,58.47
2023-01-28T05:31:56.332Z,49.67
2023-01-28T05:34:24.963Z,51.00
2023-01-28T05:36:53.773Z,46.50
2023-01-28T05:39:22.569Z,57.57
2023-01-28T05:41:51.089Z,73.83
2023-01-28T05:44:19.825Z,40.27
2023-01-28T05:46:50.392Z,42.50
2023-01-28T05:49:18.959Z,42.20
2023-01-28T05:51:48.627Z,39.00
2023-01-28T05:54:17.173Z,36.90
2023-01-28T05:56:47.650Z,37.27
2023-01-28T05:59:16.867Z,42.23
2023-01-28T06:01:45.384Z,37.50
2023-01-28T06:04:15.450Z,37.27
2023-01-28T06:06:44.004Z,39.27
2023-01-28T06:09:12.624Z,44.57
2023-01-28T06:11:41.191Z,47.87
2023-01-28T06:14:09.755Z,51.73
2023-01-28T06:16:38.321Z,61.07
2023-01-28T06:19:07.408Z,73.40
2023-01-28T06:21:37.802Z,61.97
2023-01-28T06:24:06.569Z,46.83
2023-01-28T06:26:35.186Z,47.20
2023-01-28T06:29:03.985Z,50.07
2023-01-28T06:31:32.659Z,36.90
2023-01-28T06:34:01.481Z,43.00
2023-01-28T06:36:30.511Z,48.70
2023-01-28T06:39:00.678Z,41.90
2023-01-28T06:41:29.235Z,45.33
2023-01-28T06:43:57.838Z,50.27
2023-01-28T06:46:26.772Z,42.63
2023-01-28T06:48:55.402Z,52.50
2023-01-28T06:51:24.168Z,69.07
2023-01-28T06:53:52.776Z,67.70
2023-01-28T06:56:23.059Z,91.37
2023-01-28T06:58:51.750Z,65.97
2023-01-28T07:01:20.378Z,52.67
2023-01-28T07:03:48.892Z,48.40
2023-01-28T07:06:17.566Z,41.47
2023-01-28T07:08:46.121Z,47.47
2023-01-28T07:11:14.637Z,43.00
2023-01-28T07:13:45.288Z,42.30
2023-01-28T07:16:14.034Z,48.27
2023-01-28T07:18:43.108Z,39.00
2023-01-28T07:21:11.699Z,45.60
2023-01-28T07:23:41.298Z,41.83
2023-01-28T07:26:10.493Z,40.23
2023-01-28T07:28:39.384Z,46.47
2023-01-28T07:31:09.471Z,40.80
2023-01-28T07:33:40.153Z,38.37
2023-01-28T07:36:11.660Z,41.23
2023-01-28T07:38:40.269Z,36.37
2023-01-28T07:41:08.817Z,38.20
2023-01-28T07:43:37.515Z,39.33
2023-01-28T07:46:06.393Z,36.97
2023-01-28T07:48:37.082Z,44.57
2023-01-28T07:51:05.861Z,50.73
2023-01-28T07:53:34.570Z,50.60
2023-01-28T07:56:04.973Z,54.20
2023-01-28T07:58:34.842Z,54.67
2023-01-28T08:01:03.786Z,51.43
2023-01-28T08:03:33.009Z,39.80
2023-01-28T08:06:03.125Z,49.07
2023-01-28T08:08:31.699Z,46.03
2023-01-28T08:11:00.963Z,45.93
2023-01-28T08:13:29.530Z,74.50
2023-01-28T08:15:58.514Z,56.00
2023-01-28T08:18:27.101Z,40.93
2023-01-28T08:20:57.510Z,46.53
2023-01-28T08:23:29.429Z,49.67
2023-01-28T08:26:00.726Z,47.43
2023-01-28T08:28:29.491Z,45.57
2023-01-28T08:31:00.881Z,48.33
2023-01-28T08:33:29.718Z,55.90
2023-01-28T08:35:58.381Z,50.43
2023-01-28T08:38:28.469Z,49.43
2023-01-28T08:40:59.212Z,42.83
2023-01-28T08:43:28.053Z,45.93
2023-01-28T08:45:56.631Z,45.47
2023-01-28T08:48:25.359Z,44.33
2023-01-28T08:50:54.108Z,43.23
2023-01-28T08:53:25.466Z,50.07
2023-01-28T08:55:55.814Z,45.73
2023-01-28T08:58:24.572Z,48.43
2023-01-28T09:00:53.798Z,49.40
2023-01-28T09:03:22.435Z,45.70
2023-01-28T09:05:51.281Z,42.77
2023-01-28T09:08:19.895Z,42.83
2023-01-28T09:10:48.527Z,39.93
2023-01-28T09:13:18.763Z,44.63
2023-01-28T09:15:47.391Z,46.90
2023-01-28T09:18:16.351Z,45.60
2023-01-28T09:20:45.201Z,40.57
2023-01-28T09:23:14.082Z,44.33
2023-01-28T09:25:42.793Z,42.33
2023-01-28T09:28:11.465Z,42.30
2023-01-28T09:30:41.615Z,42.87
2023-01-28T09:33:10.503Z,51.00
2023-01-28T09:35:39.315Z,42.00
2023-01-28T09:38:08.000Z,46.77
2023-01-28T09:40:39.812Z,43.53
2023-01-28T09:43:33.646Z,43.03
2023-01-28T09:46:06.109Z,37.53
2023-01-28T09:48:38.464Z,37.17
2023-01-28T09:51:12.102Z,41.80
2023-01-28T09:53:49.650Z,41.13
2023-01-28T09:56:27.188Z,56.07
2023-01-28T09:58:55.890Z,45.13
2023-01-28T10:01:40.348Z,46.73
2023-01-28T10:04:24.240Z,46.90
2023-01-28T10:07:03.198Z,44.90
2023-01-28T10:09:41.570Z,41.20
2023-01-28T10:12:40.755Z,53.10
2023-01-28T10:15:31.352Z,43.03
2023-01-28T10:18:31.663Z,41.57
2023-01-28T10:21:07.384Z,39.27
2023-01-28T10:23:45.649Z,45.57
2023-01-28T10:26:23.197Z,43.07
2023-01-28T10:28:57.317Z,39.00
2023-01-28T10:31:34.124Z,41.00
2023-01-28T10:34:04.773Z,39.13
2023-01-28T10:36:33.532Z,41.90
2023-01-28T10:39:02.209Z,41.30
2023-01-28T10:41:30.873Z,42.70
2023-01-28T10:43:59.804Z,42.10
2023-01-28T10:46:31.480Z,53.97
2023-01-28T10:49:08.806Z,47.40
2023-01-28T10:51:38.750Z,50.57
2023-01-28T10:54:22.117Z,43.40
2023-01-28T10:56:53.612Z,46.67
2023-01-28T10:59:27.302Z,44.87
2023-01-28T11:01:58.183Z,42.07
2023-01-28T11:04:30.515Z,41.33
2023-01-28T11:07:03.815Z,38.83
2023-01-28T11:09:34.406Z,49.77
2023-01-28T11:12:15.948Z,49.70
2023-01-28T11:14:52.696Z,45.63
2023-01-28T11:17:24.893Z,48.83
2023-01-28T11:19:56.481Z,50.93
2023-01-28T11:22:30.516Z,47.53
2023-01-28T11:24:59.318Z,45.27
2023-01-28T11:27:32.211Z,41.13
2023-01-28T11:30:04.906Z,42.33
2023-01-28T11:32:34.902Z,42.93
2023-01-28T11:35:09.791Z,38.87
2023-01-28T11:37:39.362Z,47.93
2023-01-28T11:40:21.862Z,46.60
2023-01-28T11:42:54.583Z,43.23
2023-01-28T11:45:37.982Z,41.37
2023-01-28T11:48:41.844Z,47.83
2023-01-28T11:51:35.299Z,39.43
2023-01-28T11:54:23.179Z,40.50
2023-01-28T11:57:07.763Z,39.80
2023-01-28T11:59:57.658Z,38.70
2023-01-28T12:02:53.798Z,43.33
2023-01-28T12:05:40.139Z,36.63
2023-01-28T12:08:19.764Z,42.70
2023-01-28T12:11:08.014Z,39.00
2023-01-28T12:13:54.121Z,40.77
2023-01-28T12:16:55.988Z,54.10
2023-01-28T12:19:50.819Z,39.10
2023-01-28T12:22:44.350Z,33.17
2023-01-28T12:25:28.362Z,34.63
2023-01-28T12:28:04.902Z,35.03
2023-01-28T12:30:51.041Z,35.47
2023-01-28T12:33:40.977Z,38.43
2023-01-28T12:36:23.682Z,36.83
2023-01-28T12:39:04.680Z,38.63
2023-01-28T12:41:41.895Z,41.83
2023-01-28T12:44:15.693Z,43.40
2023-01-28T12:46:48.073Z,41.43
2023-01-28T12:49:22.707Z,37.07
2023-01-28T12:52:03.264Z,44.43
2023-01-28T12:54:37.392Z,45.13
2023-01-28T12:57:11.746Z,44.07
2023-01-28T12:59:45.616Z,42.00
2023-01-28T13:02:25.569Z,46.23
2023-01-28T13:05:02.567Z,49.43
2023-01-28T13:07:36.931Z,41.00
2023-01-28T13:10:11.836Z,46.80
2023-01-28T13:12:43.295Z,47.53
2023-01-28T13:15:15.369Z,45.27
2023-01-28T13:17:56.494Z,41.13
2023-01-28T13:20:38.383Z,41.40
2023-01-28T13:23:23.105Z,45.30
2023-01-28T13:25:53.936Z,47.37
2023-01-28T13:28:33.047Z,48.77
2023-01-28T13:31:14.482Z,40.33
2023-01-28T13:33:44.563Z,43.73
2023-01-28T13:36:27.322Z,40.43
2023-01-28T13:39:05.527Z,40.67
2023-01-28T13:41:41.900Z,41.83
2023-01-28T13:44:22.977Z,45.30
2023-01-28T13:46:51.651Z,55.00
2023-01-28T13:49:27.547Z,48.40
2023-01-28T13:52:03.024Z,49.17
2023-01-28T13:54:33.601Z,48.73
2023-01-28T13:57:26.435Z,42.10
2023-01-28T14:00:06.631Z,40.73
2023-01-28T14:03:01.292Z,39.10
2023-01-28T14:06:07.468Z,36.73
2023-01-28T14:09:00.583Z,34.67
2023-01-28T14:12:07.454Z,46.77
2023-01-28T14:14:53.570Z,62.50
2023-01-28T14:17:35.031Z,47.97
2023-01-28T14:20:05.252Z,45.90
2023-01-28T14:22:34.440Z,45.37
2023-01-28T14:25:03.824Z,56.27
2023-01-28T14:27:39.275Z,40.67
2023-01-28T14:30:16.266Z,48.07
2023-01-28T14:32:51.020Z,50.23
2023-01-28T14:35:23.751Z,50.40
2023-01-28T14:37:53.787Z,38.77
2023-01-28T14:40:23.701Z,44.87
2023-01-28T14:42:56.092Z,40.07
2023-01-28T14:45:46.591Z,42.53
2023-01-28T14:49:04.829Z,40.77
2023-01-28T14:52:07.317Z,34.77
2023-01-28T14:54:46.046Z,36.03
2023-01-28T14:57:41.751Z,36.03
2023-01-28T15:00:21.245Z,48.63
2023-01-28T15:02:57.312Z,39.43
2023-01-28T15:05:29.771Z,55.50
2023-01-28T15:07:58.687Z,48.17
2023-01-28T15:10:33.053Z,45.83
2023-01-28T15:13:06.336Z,43.37
2023-01-28T15:15:37.381Z,43.37
2023-01-28T15:18:21.421Z,39.50
2023-01-28T15:20:53.994Z,40.23
2023-01-28T15:23:28.940Z,41.23
2023-01-28T15:25:58.437Z,44.97
2023-01-28T15:28:31.943Z,48.60
2023-01-28T15:31:01.132Z,43.73
2023-01-28T15:33:29.844Z,47.83
2023-01-28T15:36:00.839Z,50.30
2023-01-28T15:38:30.869Z,47.20
2023-01-28T15:41:03.100Z,46.50
2023-01-28T15:43:33.448Z,45.33
2023-01-28T15:46:02.655Z,44.13
2023-01-28T15:48:33.926Z,48.13
2023-01-28T15:51:06.322Z,45.50
2023-01-28T15:53:38.058Z,40.83
2023-01-28T15:56:10.004Z,43.77
2023-01-28T15:58:41.896Z,42.73
2023-01-28T16:01:19.970Z,37.30
2023-01-28T16:04:02.096Z,39.80
2023-01-28T16:06:36.207Z,32.93
2023-01-28T16:09:07.784Z,36.77
2023-01-28T16:11:45.107Z,34.03
2023-01-28T16:14:24.085Z,34.67
2023-01-28T16:16:53.457Z,36.83
2023-01-28T16:19:38.703Z,41.17
2023-01-28T16:22:09.978Z,32.47
2023-01-28T16:24:38.666Z,37.83
2023-01-28T16:27:20.336Z,37.57
2023-01-28T16:29:49.263Z,31.53
2023-01-28T16:32:32.740Z,36.47
2023-01-28T16:35:01.534Z,28.13
2023-01-28T16:37:31.513Z,36.73
2023-01-28T16:40:01.884Z,37.90
2023-01-28T16:42:32.814Z,33.90
2023-01-28T16:45:01.602Z,37.37
2023-01-28T16:47:30.486Z,39.40
2023-01-28T16:49:59.084Z,35.47
2023-01-28T16:52:27.753Z,40.93
2023-01-28T16:54:58.011Z,46.00
2023-01-28T16:57:26.630Z,36.47
2023-01-28T16:59:55.319Z,32.40
2023-01-28T17:02:23.940Z,27.40
2023-01-28T17:04:52.617Z,29.93
2023-01-28T17:07:21.604Z,31.87
2023-01-28T17:09:50.223Z,33.00
2023-01-28T17:12:20.870Z,35.77
2023-01-28T17:14:49.659Z,33.90
2023-01-28T17:17:18.507Z,34.13
2023-01-28T17:19:47.267Z,29.30
2023-01-28T17:22:15.896Z,30.43
2023-01-28T17:24:44.750Z,31.97
2023-01-28T17:27:13.472Z,26.30
2023-01-28T17:29:43.758Z,28.70
2023-01-28T17:32:12.489Z,23.77
2023-01-28T17:34:41.121Z,26.17
2023-01-28T17:37:09.663Z,26.40
2023-01-28T17:39:38.312Z,26.43
2023-01-28T17:42:06.997Z,29.13
2023-01-28T17:44:35.894Z,28.43
2023-01-28T17:47:06.204Z,28.03
2023-01-28T17:49:34.879Z,30.37
2023-01-28T17:52:03.677Z,30.37
2023-01-28T17:54:32.328Z,30.73
2023-01-28T17:57:01.903Z,31.60
2023-01-28T17:59:30.675Z,34.07
2023-01-28T18:01:59.351Z,31.27
2023-01-28T18:04:29.652Z,30.93
2023-01-28T18:06:58.343Z,40.20
2023-01-28T18:09:26.947Z,39.27
2023-01-28T18:11:55.686Z,33.87
2023-01-28T18:14:24.235Z,34.33
2023-01-28T18:16:52.810Z,36.63
2023-01-28T18:19:21.460Z,31.83
2023-01-28T18:21:53.331Z,30.60
2023-01-28T18:24:23.959Z,37.80
2023-01-28T18:26:55.555Z,33.50
2023-01-28T18:29:24.409Z,29.60
2023-01-28T18:31:55.434Z,30.97
2023-01-28T18:34:25.163Z,28.93
2023-01-28T18:36:57.676Z,32.33
2023-01-28T18:39:30.366Z,24.40
2023-01-28T18:41:59.532Z,21.43
2023-01-28T18:44:31.227Z,31.67
2023-01-28T18:46:59.980Z,22.03
2023-01-28T18:49:28.719Z,19.10
2023-01-28T18:51:59.632Z,36.63
2023-01-28T18:54:28.395Z,40.37
2023-01-28T18:56:57.104Z,46.67
2023-01-28T18:59:25.889Z,45.10
2023-01-28T19:01:54.703Z,50.37
2023-01-28T19:04:23.290Z,57.07
2023-01-28T19:06:51.854Z,63.90
2023-01-28T19:09:21.877Z,57.23
2023-01-28T19:11:51.166Z,54.27
2023-01-28T19:14:19.756Z,61.77
2023-01-28T19:16:48.394Z,60.83
2023-01-28T19:19:17.651Z,48.17
2023-01-28T19:21:46.264Z,35.97
2023-01-28T19:24:15.261Z,32.80
2023-01-28T19:26:46.100Z,27.73
2023-01-28T19:29:16.341Z,23.17
2023-01-28T19:31:49.108Z,22.73
2023-01-28T19:34:18.110Z,30.73
2023-01-28T19:36:47.172Z,27.47
2023-01-28T19:39:15.949Z,30.47
2023-01-28T19:41:48.710Z,27.23
2023-01-28T19:44:17.659Z,24.77
2023-01-28T19:46:48.517Z,25.53
2023-01-28T19:49:18.266Z,28.10
2023-01-28T19:51:50.555Z,24.77
2023-01-28T19:54:19.654Z,30.47
2023-01-28T19:56:50.195Z,32.60
2023-01-28T19:59:20.399Z,24.13
2023-01-28T20:01:51.063Z,25.80
2023-01-28T20:04:22.352Z,35.70
2023-01-28T20:06:54.039Z,39.87
2023-01-28T20:09:27.446Z,41.03
2023-01-28T20:11:57.949Z,28.30
2023-01-28T20:14:29.239Z,29.13
2023-01-28T20:16:58.055Z,21.80
2023-01-28T20:19:26.660Z,26.77
2023-01-28T20:21:55.434Z,19.17
2023-01-28T20:24:24.292Z,17.87
2023-01-28T20:26:53.029Z,22.67
2023-01-28T20:29:23.098Z,20.90
2023-01-28T20:32:09.596Z,23.97
2023-01-28T20:34:40.526Z,23.50
2023-01-28T20:37:10.379Z,31.07
2023-01-28T20:39:39.197Z,31.50
2023-01-28T20:42:09.585Z,24.03
2023-01-28T20:44:39.739Z,23.90
2023-01-28T20:47:08.691Z,24.37
2023-01-28T20:49:40.180Z,23.37
2023-01-28T20:52:08.824Z,23.20
2023-01-28T20:54:38.128Z,18.90
2023-01-28T20:57:07.008Z,19.60
2023-01-28T20:59:35.749Z,19.60
2023-01-28T21:02:06.020Z,16.60
2023-01-28T21:04:36.242Z,15.93
2023-01-28T21:07:04.787Z,16.77
2023-01-28T21:09:33.391Z,13.77
2023-01-28T21:12:02.059Z,14.83
2023-01-28T21:14:30.680Z,13.77
2023-01-28T21:16:59.342Z,15.23
2023-01-28T21:19:29.351Z,15.03
2023-01-28T21:21:57.935Z,15.43
2023-01-28T21:24:26.575Z,16.97
2023-01-28T21:26:55.196Z,16.53
2023-01-28T21:29:24.372Z,19.33
2023-01-28T21:31:53.108Z,18.53
2023-01-28T21:34:21.826Z,24.60
2023-01-28T21:36:51.885Z,19.87
2023-01-28T21:39:20.556Z,19.53
2023-01-28T21:41:49.438Z,19.93
2023-01-28T21:44:18.687Z,22.20
2023-01-28T21:46:48.007Z,19.07
2023-01-28T21:49:16.657Z,19.20
2023-01-28T21:51:47.381Z,22.33
2023-01-28T21:54:59.732Z,21.63
2023-01-28T21:57:28.681Z,24.97
2023-01-28T21:59:57.810Z,26.00
2023-01-28T22:02:26.609Z,31.17
2023-01-28T22:04:55.647Z,22.17
2023-01-28T22:07:24.249Z,19.90
2023-01-28T22:09:55.368Z,20.30
2023-01-28T22:12:24.105Z,27.37
2023-01-28T22:14:52.771Z,25.10
2023-01-28T22:17:21.594Z,31.03
2023-01-28T22:19:50.335Z,24.83
2023-01-28T22:22:19.533Z,26.73
2023-01-28T22:24:48.163Z,49.28
2023-01-28T22:27:18.376Z,32.27
2023-01-28T22:29:47.053Z,37.03
2023-01-28T22:32:15.777Z,33.83
2023-01-28T22:34:46.835Z,26.50
2023-01-28T22:37:15.750Z,64.00
2023-01-28T22:39:44.363Z,35.30
2023-01-28T22:42:12.915Z,28.37
2023-01-28T22:44:43.271Z,22.90
2023-01-28T22:47:11.959Z,25.40
2023-01-28T22:49:40.494Z,19.90
2023-01-28T22:52:09.175Z,26.97
2023-01-28T22:54:37.765Z,22.23
2023-01-28T22:57:06.390Z,21.20
2023-01-28T22:59:34.988Z,20.00
2023-01-28T23:02:05.195Z,22.03
2023-01-28T23:04:33.997Z,25.80
2023-01-28T23:07:02.665Z,25.53
2023-01-28T23:09:31.430Z,25.20
2023-01-28T23:12:00.126Z,24.07
2023-01-28T23:14:46.284Z,26.03
2023-01-28T23:17:33.911Z,29.43
2023-01-28T23:20:20.149Z,29.80
2023-01-28T23:23:06.492Z,33.67
2023-01-28T23:25:35.667Z,37.80
2023-01-28T23:28:04.282Z,35.47
2023-01-28T23:30:33.164Z,32.03
2023-01-28T23:33:03.233Z,31.47
2023-01-28T23:35:32.902Z,25.37
2023-01-28T23:38:01.547Z,26.50
2023-01-28T23:40:30.203Z,26.17
2023-01-28T23:42:58.791Z,21.70
2023-01-28T23:45:27.390Z,20.50
2023-01-28T23:47:55.990Z,20.17
2023-01-28T23:50:25.937Z,22.40
2023-01-28T23:52:54.609Z,20.10
2023-01-28T23:55:23.138Z,28.00
2023-01-28T23:57:51.655Z,22.17
